Neptune Beach, Florida
Current Conditions -  °F | °C
As of 7:52 PM on Friday 28 Nov 2014 (Local Time) from KNRB Reporting Station
Clear Clear  
Wind Chill: 50°   Ceiling: Unl
Heat Index: 50°   Visibility: 10mi
Dew Point: 37°   Wind: 8mph
Humidity: 61%   Direction: 10°N
Pressure: 30.33"   Gusts: NA
Location:  30.32°N, 81.41°W
Report Text: KNRB 290052Z 01007KT 10SM CLR 10/03 A3033 RMK AO2 SLP269 T01000028 $
Loading
Personal Weather Stations






























Interactive Weather Map New forecast layout! Learn more

10-Day Weather Forecast

Advertisements
Track Severe Weather on mobile